Time;durP1;ratioP1;P1;durP2;ratioP2;P2;SDS_P1;SDS_P2;PMS_P1;PMS_P2;Temp;Humidity;BMP_temperature;BMP_pressure;BME280_temperature;BME280_humidity;BME280_pressure;Samples;Min_cycle;Max_cycle;Signal;HPM_P1;HPM_P2
2022/04/03 00:00:48;;;;;;;21.70;7.97;;;-0.20;79.80;;;;;;4946189;29;20058;-67
2022/04/03 00:03:16;;;;;;;24.77;7.65;;;-0.20;79.90;;;;;;4949076;29;20408;-67
2022/04/03 00:05:44;;;;;;;20.15;7.47;;;-0.30;80.00;;;;;;4939478;29;20355;-67
2022/04/03 00:08:15;;;;;;;16.60;7.40;;;-0.30;80.10;;;;;;4940611;29;20048;-67
2022/04/03 00:10:46;;;;;;;20.85;6.90;;;-0.30;80.40;;;;;;4951659;29;20609;-67
2022/04/03 00:13:13;;;;;;;14.45;7.40;;;-0.40;80.50;;;;;;4941914;29;20477;-67
2022/04/03 00:15:42;;;;;;;17.25;8.57;;;-0.40;80.50;;;;;;4939469;29;20051;-67
2022/04/03 00:18:10;;;;;;;12.68;7.15;;;-0.50;80.50;;;;;;4962366;28;20047;-67
2022/04/03 00:20:39;;;;;;;15.02;6.63;;;-0.60;80.60;;;;;;4948637;28;20051;-66
2022/04/03 00:23:08;;;;;;;12.80;7.07;;;-0.60;80.70;;;;;;4941912;29;20054;-66
2022/04/03 00:25:37;;;;;;;11.13;7.20;;;-0.70;80.90;;;;;;4952376;29;20047;-67
2022/04/03 00:28:05;;;;;;;21.52;8.35;;;-0.70;80.90;;;;;;4943652;28;20412;-66
2022/04/03 00:30:34;;;;;;;18.38;8.30;;;-0.80;81.10;;;;;;4935841;29;20055;-66
2022/04/03 00:33:02;;;;;;;16.65;7.65;;;-0.80;81.10;;;;;;4948071;29;20058;-67
2022/04/03 00:35:29;;;;;;;19.05;8.07;;;-0.80;81.10;;;;;;4940900;29;20050;-66
2022/04/03 00:37:57;;;;;;;16.40;7.93;;;-0.90;81.30;;;;;;4941247;29;20074;-67
2022/04/03 00:40:26;;;;;;;22.40;8.95;;;-1.00;81.30;;;;;;4938668;29;20044;-66
2022/04/03 00:42:54;;;;;;;27.38;9.40;;;-1.00;81.50;;;;;;4941357;29;20060;-67
2022/04/03 00:45:22;;;;;;;23.77;9.00;;;-1.00;81.60;;;;;;4943111;29;20051;-67
2022/04/03 00:47:56;;;;;;;27.50;10.70;;;-1.00;81.60;;;;;;4939010;29;20052;-66
2022/04/03 00:50:25;;;;;;;26.95;9.90;;;-1.00;81.80;;;;;;4938705;29;20052;-66
2022/04/03 00:52:53;;;;;;;19.23;9.10;;;-1.00;81.90;;;;;;4942025;29;20047;-67
2022/04/03 00:55:20;;;;;;;26.50;9.80;;;-1.00;82.10;;;;;;4936825;29;20505;-67
2022/04/03 00:57:48;;;;;;;32.70;10.05;;;-1.00;82.10;;;;;;4937364;29;20071;-66
2022/04/03 01:00:17;;;;;;;22.77;9.32;;;-1.10;82.10;;;;;;4944346;29;20058;-67
2022/04/03 01:02:45;;;;;;;33.85;10.23;;;-1.10;82.20;;;;;;4945695;29;20235;-67
2022/04/03 01:05:13;;;;;;;35.92;11.18;;;-1.20;82.40;;;;;;4948053;29;20058;-67
2022/04/03 01:07:41;;;;;;;23.10;9.50;;;-1.20;82.50;;;;;;4938655;29;20047;-67
2022/04/03 01:10:10;;;;;;;22.40;10.68;;;-1.20;82.60;;;;;;4942582;28;20417;-67
2022/04/03 01:12:41;;;;;;;24.95;10.30;;;-1.20;82.80;;;;;;4941564;29;20054;-67
2022/04/03 01:15:19;;;;;;;20.48;10.68;;;-1.20;82.80;;;;;;4947294;29;20055;-67
2022/04/03 01:17:47;;;;;;;33.22;10.38;;;-1.20;82.90;;;;;;4946725;29;20043;-67
2022/04/03 01:20:15;;;;;;;24.75;9.77;;;-1.20;83.00;;;;;;4953947;29;20055;-67
2022/04/03 01:22:43;;;;;;;27.35;9.45;;;-1.20;83.00;;;;;;4943712;29;20043;-67
2022/04/03 01:25:11;;;;;;;21.95;9.43;;;-1.40;83.00;;;;;;4950196;29;20044;-67
2022/04/03 01:27:39;;;;;;;20.85;9.07;;;-1.40;83.10;;;;;;4936132;29;20058;-67
2022/04/03 01:30:10;;;;;;;22.17;10.40;;;-1.50;83.30;;;;;;4938300;29;20071;-67
2022/04/03 01:32:40;;;;;;;31.90;12.25;;;-1.50;83.50;;;;;;4934342;29;20058;-67
2022/04/03 01:35:08;;;;;;;26.13;10.95;;;-1.50;83.60;;;;;;4937748;29;20044;-67
2022/04/03 01:37:36;;;;;;;26.33;11.15;;;-1.50;83.60;;;;;;4948212;28;20510;-67
2022/04/03 01:40:04;;;;;;;28.48;11.38;;;-1.50;83.70;;;;;;4939598;29;20063;-67
2022/04/03 01:42:32;;;;;;;23.88;11.15;;;-1.50;83.70;;;;;;4917664;29;20059;-67
2022/04/03 01:45:00;;;;;;;18.30;9.77;;;-1.50;83.70;;;;;;4952328;28;20055;-67
2022/04/03 01:47:27;;;;;;;25.50;9.68;;;-1.50;83.90;;;;;;4942985;29;20147;-67
2022/04/03 01:49:55;;;;;;;30.00;11.38;;;-1.50;84.00;;;;;;4932950;29;20048;-67
2022/04/03 01:52:23;;;;;;;24.23;10.68;;;-1.50;84.00;;;;;;4938505;29;20054;-67
2022/04/03 01:54:51;;;;;;;25.27;9.60;;;-1.60;84.00;;;;;;4946254;29;20485;-67
2022/04/03 01:57:18;;;;;;;23.27;10.35;;;-1.70;84.10;;;;;;4950546;28;20075;-67
2022/04/03 01:59:46;;;;;;;18.98;9.05;;;-1.70;84.20;;;;;;4938717;29;20056;-66
2022/04/03 02:02:13;;;;;;;21.33;10.00;;;-1.70;84.40;;;;;;4934604;29;20048;-67
2022/04/03 02:04:41;;;;;;;23.10;9.60;;;-1.70;84.40;;;;;;4942770;29;20043;-67
2022/04/03 02:07:09;;;;;;;22.02;10.30;;;-1.70;84.40;;;;;;4941325;29;20044;-67
2022/04/03 02:09:37;;;;;;;21.38;10.27;;;-1.80;84.40;;;;;;4947251;29;20058;-67
2022/04/03 02:12:06;;;;;;;23.10;9.90;;;-1.80;84.40;;;;;;4943348;29;20383;-68
2022/04/03 02:14:33;;;;;;;17.65;9.70;;;-1.80;84.40;;;;;;4940647;29;20043;-67
2022/04/03 02:17:01;;;;;;;17.45;9.18;;;-1.80;84.50;;;;;;4942633;29;20513;-67
2022/04/03 02:19:29;;;;;;;17.63;9.32;;;-1.80;84.50;;;;;;4938908;29;20497;-68
2022/04/03 02:21:56;;;;;;;16.58;9.45;;;-1.80;84.50;;;;;;4950224;29;20408;-67
2022/04/03 02:24:24;;;;;;;14.48;8.57;;;-1.80;84.40;;;;;;4938838;29;20090;-66
2022/04/03 02:26:51;;;;;;;18.63;9.25;;;-1.80;84.40;;;;;;4951782;29;20050;-67
2022/04/03 02:29:19;;;;;;;15.68;9.52;;;-1.80;84.50;;;;;;4949485;28;20048;-67
2022/04/03 02:31:47;;;;;;;35.50;11.18;;;-1.80;84.60;;;;;;4945374;28;20502;-66
2022/04/03 02:34:14;;;;;;;26.45;10.73;;;-1.70;84.50;;;;;;4941192;29;20042;-67
2022/04/03 02:36:43;;;;;;;24.92;10.15;;;-1.70;84.50;;;;;;4947660;29;20047;-67
2022/04/03 02:39:14;;;;;;;18.98;9.60;;;-1.80;84.50;;;;;;4954961;29;20092;-67
2022/04/03 02:41:41;;;;;;;17.80;10.10;;;-1.80;84.50;;;;;;4956307;29;20047;-67
2022/04/03 02:44:09;;;;;;;17.30;9.30;;;-1.80;84.60;;;;;;4948438;28;20066;-67
2022/04/03 02:46:38;;;;;;;19.98;9.82;;;-1.90;84.70;;;;;;4929967;29;20405;-67
2022/04/03 02:49:08;;;;;;;17.17;9.20;;;-1.90;84.80;;;;;;4951725;29;20051;-68
2022/04/03 02:51:36;;;;;;;17.13;8.20;;;-1.90;84.80;;;;;;4949799;29;20059;-67
2022/04/03 02:54:04;;;;;;;19.17;9.90;;;-2.00;84.90;;;;;;4940226;29;20039;-66
2022/04/03 02:56:32;;;;;;;23.42;10.55;;;-2.10;85.00;;;;;;4937479;29;20060;-66
2022/04/03 02:58:59;;;;;;;19.00;10.27;;;-2.10;85.10;;;;;;4937030;29;20059;-67
2022/04/03 03:01:27;;;;;;;28.30;12.07;;;-2.10;85.20;;;;;;4948512;29;20373;-67
2022/04/03 03:03:55;;;;;;;32.55;11.60;;;-2.10;85.30;;;;;;4936006;29;20060;-67
2022/04/03 03:06:23;;;;;;;32.35;10.95;;;-2.00;85.30;;;;;;4944970;29;20062;-67
2022/04/03 03:08:50;;;;;;;27.75;11.60;;;-2.10;85.20;;;;;;4956175;29;20047;-68
2022/04/03 03:11:18;;;;;;;29.00;11.52;;;-2.10;85.30;;;;;;4939837;29;20039;-67
2022/04/03 03:13:45;;;;;;;24.73;11.05;;;-2.00;85.40;;;;;;4919733;29;20055;-67
2022/04/03 03:16:13;;;;;;;26.88;10.45;;;-2.10;85.40;;;;;;4949880;29;20474;-67
2022/04/03 03:18:42;;;;;;;29.05;10.52;;;-2.10;85.50;;;;;;4955761;29;20047;-67
2022/04/03 03:21:09;;;;;;;24.23;9.95;;;-2.10;85.50;;;;;;4948214;29;20047;-66
2022/04/03 03:23:40;;;;;;;28.48;10.32;;;-2.10;85.50;;;;;;4952696;29;20051;-67
2022/04/03 03:26:08;;;;;;;28.25;11.63;;;-2.20;85.60;;;;;;4945905;29;20050;-66
2022/04/03 03:28:36;;;;;;;20.98;10.85;;;-2.30;85.70;;;;;;4955573;29;20062;-67
2022/04/03 03:31:03;;;;;;;25.08;11.13;;;-2.40;85.80;;;;;;4944883;29;20047;-66
2022/04/03 03:33:31;;;;;;;24.55;10.88;;;-2.40;85.90;;;;;;4936728;29;20055;-67
2022/04/03 03:35:59;;;;;;;20.70;10.15;;;-2.40;85.90;;;;;;4945022;29;20509;-66
2022/04/03 03:38:27;;;;;;;18.67;9.65;;;-2.50;85.90;;;;;;4955423;29;20051;-67
2022/04/03 03:40:54;;;;;;;23.10;10.70;;;-2.50;86.00;;;;;;4940395;29;20067;-67
2022/04/03 03:43:22;;;;;;;22.08;9.95;;;-2.60;86.00;;;;;;4935200;29;20055;-67
2022/04/03 03:45:49;;;;;;;17.50;10.20;;;-2.60;86.10;;;;;;4946547;29;20055;-67
2022/04/03 03:48:17;;;;;;;16.52;10.20;;;-2.60;86.10;;;;;;4954381;29;20039;-67
2022/04/03 03:50:45;;;;;;;17.52;9.10;;;-2.60;86.20;;;;;;4945356;29;20472;-66
2022/04/03 03:53:13;;;;;;;24.85;10.77;;;-2.60;86.20;;;;;;4954547;28;20409;-66
2022/04/03 03:55:41;;;;;;;26.27;11.43;;;-2.60;86.30;;;;;;4945303;29;20501;-66
2022/04/03 03:58:08;;;;;;;25.75;12.15;;;-2.60;86.30;;;;;;4937693;29;20054;-66
2022/04/03 04:00:37;;;;;;;28.52;12.30;;;-2.40;86.40;;;;;;4945750;29;20563;-67
2022/04/03 04:03:05;;;;;;;24.58;12.00;;;-2.40;86.20;;;;;;4952572;29;20055;-67
2022/04/03 04:05:33;;;;;;;30.13;12.95;;;-2.30;86.20;;;;;;4935638;29;20054;-66
2022/04/03 04:08:00;;;;;;;33.47;11.98;;;-2.30;86.20;;;;;;4935929;29;20048;-67
2022/04/03 04:10:28;;;;;;;28.08;12.50;;;-2.30;86.20;;;;;;4947074;29;20409;-67
2022/04/03 04:12:55;;;;;;;24.77;12.65;;;-2.20;86.20;;;;;;4953783;29;20059;-67
2022/04/03 04:15:23;;;;;;;28.98;11.88;;;-2.10;86.10;;;;;;4945847;29;20054;-67
2022/04/03 04:17:54;;;;;;;26.00;12.38;;;-2.10;86.10;;;;;;4939921;29;20524;-67
2022/04/03 04:20:23;;;;;;;25.35;11.30;;;-2.00;86.00;;;;;;4942936;29;20048;-67
2022/04/03 04:22:54;;;;;;;21.90;11.23;;;-1.90;86.00;;;;;;4952047;29;20058;-68
2022/04/03 04:25:22;;;;;;;20.85;10.95;;;-1.90;86.00;;;;;;4945461;29;20051;-68
2022/04/03 04:27:49;;;;;;;24.15;11.27;;;-1.90;86.00;;;;;;4935155;29;20394;-65
2022/04/03 04:30:17;;;;;;;17.20;10.63;;;-1.80;86.00;;;;;;4953373;29;20047;-66
2022/04/03 04:32:45;;;;;;;19.83;10.75;;;-1.80;85.90;;;;;;4954437;29;20050;-66
2022/04/03 04:35:13;;;;;;;17.58;11.05;;;-1.80;85.90;;;;;;4953046;29;20052;-66
2022/04/03 04:37:42;;;;;;;18.98;10.57;;;-1.80;85.90;;;;;;4939287;29;20182;-66
2022/04/03 04:40:12;;;;;;;19.67;11.20;;;-1.70;85.90;;;;;;4946512;29;20062;-65
2022/04/03 04:42:39;;;;;;;22.55;11.15;;;-1.80;85.80;;;;;;4936547;29;20044;-66
2022/04/03 04:45:09;;;;;;;19.77;10.27;;;-1.80;85.80;;;;;;4935304;29;20048;-66
2022/04/03 04:47:43;;;;;;;15.98;10.07;;;-1.90;85.90;;;;;;4935834;29;20051;-66
2022/04/03 04:50:14;;;;;;;16.73;10.73;;;-1.90;86.00;;;;;;4945199;29;20055;-66
2022/04/03 04:52:43;;;;;;;19.98;10.10;;;-2.00;86.10;;;;;;4948915;29;20055;-66
2022/04/03 04:55:11;;;;;;;22.48;11.30;;;-2.00;86.20;;;;;;4954215;29;20055;-66
2022/04/03 04:57:39;;;;;;;25.02;13.18;;;-1.90;86.30;;;;;;4938117;29;20059;-66
2022/04/03 05:00:09;;;;;;;20.85;12.13;;;-1.90;86.30;;;;;;4934955;29;20060;-66
2022/04/03 05:02:37;;;;;;;20.35;11.70;;;-1.80;86.20;;;;;;4948870;29;20050;-66
2022/04/03 05:05:05;;;;;;;25.80;12.50;;;-1.70;86.20;;;;;;4952987;29;20047;-66
2022/04/03 05:07:34;;;;;;;27.02;12.80;;;-1.70;86.10;;;;;;4952154;29;20516;-66
2022/04/03 05:10:04;;;;;;;23.20;12.30;;;-1.60;86.10;;;;;;4940203;29;20052;-66
2022/04/03 05:12:36;;;;;;;21.23;11.43;;;-1.60;86.10;;;;;;4949108;29;20043;-66
2022/04/03 05:15:08;;;;;;;21.63;12.45;;;-1.50;86.10;;;;;;4953788;29;20374;-66
2022/04/03 05:17:35;;;;;;;33.17;11.85;;;-1.40;86.00;;;;;;4943790;29;20051;-66
2022/04/03 05:20:03;;;;;;;20.35;11.88;;;-1.40;86.00;;;;;;4952688;28;20055;-66
2022/04/03 05:22:31;;;;;;;24.58;12.35;;;-1.30;85.90;;;;;;4943785;29;20524;-66
2022/04/03 05:24:59;;;;;;;25.17;11.88;;;-1.30;85.90;;;;;;4941599;29;20047;-66
2022/04/03 05:27:27;;;;;;;23.67;11.85;;;-1.20;85.90;;;;;;4945742;29;20062;-66
2022/04/03 05:29:55;;;;;;;25.25;11.90;;;-1.20;85.90;;;;;;4953612;29;20047;-66
2022/04/03 05:32:26;;;;;;;26.20;11.90;;;-1.10;85.80;;;;;;4950711;29;20060;-66
2022/04/03 05:34:55;;;;;;;23.00;12.00;;;-1.10;85.80;;;;;;4935393;28;20060;-66
2022/04/03 05:37:23;;;;;;;23.02;12.18;;;-1.00;85.80;;;;;;4936256;29;20042;-66
2022/04/03 05:39:51;;;;;;;22.83;13.50;;;-0.90;85.80;;;;;;4934061;29;20063;-66
2022/04/03 05:42:20;;;;;;;23.58;13.10;;;-0.90;85.80;;;;;;4935875;29;20047;-66
2022/04/03 05:44:48;;;;;;;20.15;11.65;;;-0.80;85.80;;;;;;4944261;29;20054;-66
2022/04/03 05:47:17;;;;;;;20.90;12.18;;;-0.80;85.70;;;;;;4933826;29;20047;-66
2022/04/03 05:49:45;;;;;;;20.25;11.35;;;-0.70;85.70;;;;;;4939175;29;20059;-67
2022/04/03 05:52:13;;;;;;;21.35;11.75;;;-0.70;85.70;;;;;;4933065;29;20056;-65
2022/04/03 05:54:40;;;;;;;21.52;12.05;;;-0.60;85.70;;;;;;4948920;29;20497;-65
2022/04/03 05:57:10;;;;;;;22.90;11.65;;;-0.60;85.60;;;;;;4934895;29;20059;-65
2022/04/03 05:59:37;;;;;;;21.42;11.55;;;-0.60;85.60;;;;;;4950252;29;20055;-67
2022/04/03 06:02:07;;;;;;;18.65;11.38;;;-0.50;85.60;;;;;;4941845;29;20520;-66
2022/04/03 06:04:35;;;;;;;20.42;12.20;;;-0.50;85.50;;;;;;4951465;28;20054;-66
2022/04/03 06:07:03;;;;;;;17.95;11.95;;;-0.40;85.50;;;;;;4956506;28;20061;-66
2022/04/03 06:09:30;;;;;;;20.08;11.25;;;-0.40;85.50;;;;;;4945366;29;20047;-66
2022/04/03 06:11:58;;;;;;;22.38;11.73;;;-0.30;85.40;;;;;;4938429;29;20055;-65
2022/04/03 06:14:25;;;;;;;19.10;11.77;;;-0.20;85.40;;;;;;4951386;29;20069;-65
2022/04/03 06:16:53;;;;;;;19.60;11.93;;;-0.20;85.30;;;;;;4950220;29;20067;-66
2022/04/03 06:19:20;;;;;;;22.88;11.73;;;-0.10;85.30;;;;;;4949763;29;20052;-66
2022/04/03 06:21:48;;;;;;;19.05;11.20;;;-0.10;85.20;;;;;;4956319;29;20062;-67
2022/04/03 06:24:15;;;;;;;21.08;11.02;;;0.00;85.20;;;;;;4925982;29;20383;-66
2022/04/03 06:26:43;;;;;;;22.45;11.50;;;0.00;85.00;;;;;;4939078;29;20055;-66
2022/04/03 06:29:10;;;;;;;19.02;11.20;;;0.00;85.00;;;;;;4938065;29;20051;-66
2022/04/03 06:31:38;;;;;;;18.30;10.95;;;0.00;84.90;;;;;;4939473;29;20051;-65
2022/04/03 06:34:05;;;;;;;21.23;11.68;;;0.10;84.90;;;;;;4956227;29;20050;-66
2022/04/03 06:36:33;;;;;;;24.75;11.20;;;0.20;84.80;;;;;;4952524;29;20066;-66
2022/04/03 06:39:01;;;;;;;18.92;11.00;;;0.20;84.80;;;;;;4942354;29;20039;-65
2022/04/03 06:41:29;;;;;;;23.17;11.38;;;0.20;84.70;;;;;;4936177;29;20120;-65
2022/04/03 06:43:58;;;;;;;19.42;11.45;;;0.30;84.60;;;;;;4952499;29;20059;-66
2022/04/03 06:46:26;;;;;;;19.15;11.02;;;0.40;84.50;;;;;;4944528;29;20054;-65
2022/04/03 06:48:54;;;;;;;17.25;11.48;;;0.50;84.40;;;;;;4939766;29;20062;-66
2022/04/03 06:51:21;;;;;;;19.58;11.77;;;0.50;84.40;;;;;;4936204;29;20067;-65
2022/04/03 06:53:49;;;;;;;20.70;11.50;;;0.60;84.30;;;;;;4951692;29;20066;-65
2022/04/03 06:56:16;;;;;;;23.50;11.90;;;0.70;84.30;;;;;;4954703;29;20059;-66
2022/04/03 06:58:44;;;;;;;21.05;11.13;;;0.80;84.20;;;;;;4947685;29;20078;-66
2022/04/03 07:01:11;;;;;;;16.52;11.38;;;0.80;84.20;;;;;;4942755;29;20490;-66
2022/04/03 07:03:39;;;;;;;18.55;11.15;;;0.90;84.20;;;;;;4948098;29;20043;-66
2022/04/03 07:06:07;;;;;;;17.67;11.32;;;1.10;84.10;;;;;;4949331;29;20071;-65
2022/04/03 07:08:35;;;;;;;18.35;11.02;;;1.20;84.00;;;;;;4942957;29;20051;-66
2022/04/03 07:11:03;;;;;;;18.98;11.35;;;1.30;83.80;;;;;;4944810;29;20074;-67
2022/04/03 07:13:31;;;;;;;24.83;11.80;;;1.40;83.70;;;;;;4945997;29;20047;-66
2022/04/03 07:15:59;;;;;;;18.20;11.65;;;1.50;83.50;;;;;;4939757;28;20556;-66
2022/04/03 07:18:30;;;;;;;19.50;12.43;;;1.70;83.40;;;;;;4939817;29;20044;-65
2022/04/03 07:20:58;;;;;;;22.27;13.52;;;1.80;83.20;;;;;;4945790;29;20429;-66
2022/04/03 07:23:26;;;;;;;20.50;11.68;;;1.80;83.00;;;;;;4947376;29;20067;-66
2022/04/03 07:25:53;;;;;;;23.73;12.48;;;1.80;82.90;;;;;;4950316;29;20398;-66
2022/04/03 07:28:22;;;;;;;17.13;11.98;;;1.90;82.80;;;;;;4940229;29;20051;-66
2022/04/03 07:30:50;;;;;;;21.88;12.63;;;2.00;82.80;;;;;;4938751;29;20066;-65
2022/04/03 07:33:21;;;;;;;23.27;12.00;;;2.10;82.70;;;;;;4947395;29;20048;-66
2022/04/03 07:35:48;;;;;;;16.50;11.05;;;2.20;82.70;;;;;;4966236;28;20534;-66
2022/04/03 07:38:16;;;;;;;19.67;12.05;;;2.30;82.50;;;;;;4942899;28;20051;-66
2022/04/03 07:40:48;;;;;;;21.50;12.07;;;2.40;82.40;;;;;;4950467;29;20169;-66
2022/04/03 07:43:23;;;;;;;21.35;11.68;;;2.50;82.20;;;;;;4945368;29;20043;-66
2022/04/03 07:45:50;;;;;;;19.63;12.45;;;2.70;82.10;;;;;;4937905;29;20056;-66
2022/04/03 07:48:19;;;;;;;19.88;11.45;;;2.90;81.80;;;;;;4942671;29;20058;-66
2022/04/03 07:50:47;;;;;;;17.70;12.02;;;3.00;81.40;;;;;;4954674;29;20063;-66
2022/04/03 07:53:15;;;;;;;19.13;12.70;;;3.20;81.20;;;;;;4946480;29;20054;-66
2022/04/03 07:55:43;;;;;;;18.55;12.23;;;3.30;80.90;;;;;;4950972;29;20066;-66
2022/04/03 07:58:11;;;;;;;18.48;10.68;;;3.40;80.60;;;;;;4949901;29;20497;-66
2022/04/03 08:00:39;;;;;;;17.90;12.05;;;3.50;80.40;;;;;;4953091;29;20039;-66
2022/04/03 08:03:07;;;;;;;14.48;10.65;;;3.70;80.10;;;;;;4946068;28;20682;-65
2022/04/03 08:05:35;;;;;;;18.40;11.18;;;3.70;80.00;;;;;;4953881;28;20536;-66
2022/04/03 08:08:02;;;;;;;15.38;10.32;;;3.80;79.70;;;;;;4951053;29;20043;-69
2022/04/03 08:10:30;;;;;;;13.00;9.90;;;3.90;79.30;;;;;;4949293;29;20043;-68
2022/04/03 08:12:58;;;;;;;17.77;11.07;;;4.10;79.00;;;;;;4940332;29;20051;-67
2022/04/03 08:15:26;;;;;;;13.60;10.40;;;4.20;78.70;;;;;;4943588;29;20062;-68
2022/04/03 08:17:54;;;;;;;15.90;10.15;;;4.30;78.20;;;;;;4941808;29;20417;-66
2022/04/03 08:20:22;;;;;;;13.27;9.98;;;4.50;77.70;;;;;;4942237;29;20055;-67
2022/04/03 08:22:49;;;;;;;14.90;9.82;;;4.70;77.50;;;;;;4965427;28;20052;-67
2022/04/03 08:25:18;;;;;;;15.73;9.30;;;4.80;76.90;;;;;;4943859;29;20054;-67
2022/04/03 08:27:51;;;;;;;15.85;9.98;;;5.00;76.70;;;;;;4936677;29;20051;-66
2022/04/03 08:30:20;;;;;;;;;;;5.20;76.30;;;;;;4939638;29;20051;-67
2022/04/03 08:32:48;;;;;;;14.65;9.25;;;5.40;75.70;;;;;;4943158;29;19930;-67
2022/04/03 08:35:17;;;;;;;17.23;9.45;;;5.50;75.20;;;;;;4941236;29;20047;-67
2022/04/03 08:37:45;;;;;;;14.50;9.45;;;5.70;75.00;;;;;;4935443;29;20089;-67
2022/04/03 08:40:19;;;;;;;13.75;8.77;;;5.80;74.50;;;;;;4943509;29;20055;-67
2022/04/03 08:42:50;;;;;;;13.82;8.57;;;6.00;73.80;;;;;;4947993;29;20410;-68
2022/04/03 08:45:19;;;;;;;11.13;7.45;;;6.10;73.40;;;;;;4948887;29;20043;-67
2022/04/03 08:48:00;;;;;;;14.23;7.95;;;6.30;72.90;;;;;;4943002;29;20401;-67
2022/04/03 08:50:30;;;;;;;13.30;7.90;;;6.40;71.70;;;;;;4943252;29;20401;-68
2022/04/03 08:53:01;;;;;;;14.32;7.50;;;6.60;71.30;;;;;;4942865;29;20405;-67
2022/04/03 08:55:30;;;;;;;11.82;7.22;;;6.70;70.30;;;;;;4935311;29;20055;-66
2022/04/03 08:57:58;;;;;;;9.48;7.32;;;6.80;70.10;;;;;;4942939;29;20043;-67
2022/04/03 09:00:26;;;;;;;8.85;6.97;;;6.80;69.60;;;;;;4966916;28;21819;-66
2022/04/03 09:02:54;;;;;;;9.20;7.38;;;6.90;69.10;;;;;;4940099;29;20051;-66
2022/04/03 09:05:22;;;;;;;11.98;8.20;;;6.90;68.40;;;;;;4935661;29;20048;-66
2022/04/03 09:08:03;;;;;;;9.75;7.55;;;7.00;68.40;;;;;;4940932;29;20047;-66
2022/04/03 09:10:31;;;;;;;11.07;7.32;;;7.00;68.80;;;;;;4945437;29;20066;-66
2022/04/03 09:12:59;;;;;;;12.65;7.53;;;7.10;68.10;;;;;;4943814;29;20417;-66
2022/04/03 09:15:29;;;;;;;8.63;7.28;;;7.10;68.20;;;;;;4944658;29;20047;-66
2022/04/03 09:17:59;;;;;;;10.70;7.30;;;7.00;68.40;;;;;;4936842;29;20058;-66
2022/04/03 09:20:30;;;;;;;10.90;7.15;;;7.00;68.70;;;;;;4943676;29;20055;-66
2022/04/03 09:23:00;;;;;;;10.90;8.15;;;7.00;68.90;;;;;;4938947;29;20054;-66
2022/04/03 09:25:40;;;;;;;14.38;7.85;;;7.10;69.20;;;;;;4946150;28;20401;-66
2022/04/03 09:28:13;;;;;;;10.80;7.85;;;7.00;69.10;;;;;;4948275;29;20524;-66
2022/04/03 09:30:45;;;;;;;;;;;7.00;69.30;;;;;;4949209;29;20358;-66
2022/04/03 09:33:20;;;;;;;11.50;7.78;;;7.00;69.30;;;;;;4944265;29;19929;-67
2022/04/03 09:36:01;;;;;;;13.98;8.63;;;6.80;69.50;;;;;;4948882;29;20528;-66
2022/04/03 09:38:32;;;;;;;11.68;7.97;;;6.70;69.60;;;;;;4944199;28;20047;-66
2022/04/03 09:41:01;;;;;;;9.40;6.70;;;6.70;70.00;;;;;;4944898;29;20059;-66
2022/04/03 09:43:40;;;;;;;14.90;7.20;;;6.70;70.30;;;;;;4937069;29;20063;-66
2022/04/03 09:46:12;;;;;;;12.25;7.20;;;6.70;70.50;;;;;;4950728;29;20052;-66
2022/04/03 09:48:44;;;;;;;8.10;5.82;;;6.80;70.50;;;;;;4944023;29;20055;-66
2022/04/03 09:51:22;;;;;;;10.73;6.65;;;6.90;70.30;;;;;;4948832;29;21547;-66
2022/04/03 09:53:56;;;;;;;8.80;7.05;;;7.00;70.20;;;;;;4944848;28;20043;-67
2022/04/03 09:56:31;;;;;;;7.88;6.50;;;7.10;69.90;;;;;;4956043;29;20058;-67
2022/04/03 09:59:07;;;;;;;11.88;6.65;;;7.10;69.60;;;;;;4940057;29;20047;-66
2022/04/03 10:01:40;;;;;;;7.53;5.97;;;7.30;69.60;;;;;;4946399;29;20408;-67
2022/04/03 10:04:14;;;;;;;8.13;6.03;;;7.30;69.00;;;;;;4949030;29;20055;-67
2022/04/03 10:06:42;;;;;;;8.07;6.15;;;7.40;68.60;;;;;;4943792;29;20054;-66
2022/04/03 10:09:15;;;;;;;6.68;5.70;;;7.60;68.80;;;;;;4943525;28;20120;-66
2022/04/03 10:11:43;;;;;;;9.15;4.43;;;7.80;68.60;;;;;;4939723;29;20052;-66
2022/04/03 10:14:11;;;;;;;3.88;3.28;;;7.90;67.60;;;;;;4957261;29;20047;-65
2022/04/03 10:16:40;;;;;;;5.65;3.75;;;8.10;66.70;;;;;;4956962;29;20047;-65
2022/04/03 10:19:08;;;;;;;6.47;3.70;;;8.20;65.90;;;;;;4937998;29;20052;-65
2022/04/03 10:21:51;;;;;;;7.55;2.92;;;8.30;65.40;;;;;;4949527;29;20050;-65
2022/04/03 10:24:22;;;;;;;4.18;3.40;;;8.50;63.20;;;;;;4945744;29;20404;-66
2022/04/03 10:26:52;;;;;;;7.20;4.07;;;8.70;62.60;;;;;;4946132;28;20047;-66
2022/04/03 10:29:20;;;;;;;5.38;3.72;;;8.80;62.10;;;;;;4955063;29;20489;-67
2022/04/03 10:31:56;;;;;;;9.52;4.25;;;9.00;62.10;;;;;;4951253;28;20052;-66
2022/04/03 10:34:26;;;;;;;8.20;3.90;;;9.30;61.60;;;;;;4939391;29;20039;-66
2022/04/03 10:36:54;;;;;;;4.60;2.90;;;9.50;60.60;;;;;;4955700;29;20043;-68
2022/04/03 10:39:29;;;;;;;8.30;2.80;;;9.50;59.30;;;;;;4956869;29;20055;-67
2022/04/03 10:42:20;;;;;;;3.90;2.30;;;9.30;58.40;;;;;;4955619;29;20394;-67
2022/04/03 10:45:12;;;;;;;4.80;3.25;;;9.10;56.70;;;;;;4944669;28;20055;-67
2022/04/03 10:47:41;;;;;;;3.17;2.88;;;8.80;57.30;;;;;;4937227;29;20052;-67
2022/04/03 10:50:21;;;;;;;5.40;2.88;;;8.80;57.40;;;;;;4943748;28;20044;-67
2022/04/03 10:52:49;;;;;;;5.70;3.08;;;8.80;57.60;;;;;;4942802;29;20626;-67
2022/04/03 10:55:25;;;;;;;6.03;2.92;;;8.80;57.70;;;;;;4953406;29;20082;-67
2022/04/03 10:58:02;;;;;;;3.60;2.92;;;8.90;57.10;;;;;;4943425;28;20052;-68
2022/04/03 11:00:35;;;;;;;4.50;2.78;;;8.80;55.70;;;;;;4944570;29;20552;-66
2022/04/03 11:03:15;;;;;;;3.22;2.90;;;8.80;55.60;;;;;;4938991;29;20051;-67
2022/04/03 11:05:47;;;;;;;7.97;3.00;;;8.60;56.00;;;;;;4948692;29;20047;-68
2022/04/03 11:08:17;;;;;;;4.20;2.97;;;8.40;55.60;;;;;;4947130;29;20058;-68
2022/04/03 11:10:56;;;;;;;5.28;3.28;;;8.30;56.60;;;;;;4955906;29;20378;-69
2022/04/03 11:13:44;;;;;;;3.92;1.80;;;8.20;57.30;;;;;;4951416;29;20037;-68
2022/04/03 11:16:12;;;;;;;4.55;1.58;;;8.30;56.40;;;;;;4945631;29;20051;-68
2022/04/03 11:18:48;;;;;;;4.05;1.70;;;8.30;54.90;;;;;;4942150;29;20039;-68
2022/04/03 11:21:30;;;;;;;4.10;2.20;;;8.40;55.00;;;;;;4949569;28;20058;-68
2022/04/03 11:24:03;;;;;;;4.82;1.98;;;8.60;55.00;;;;;;4944603;29;20052;-67
2022/04/03 11:26:32;;;;;;;1.77;1.40;;;8.70;55.50;;;;;;4944790;29;20051;-69
2022/04/03 11:29:04;;;;;;;2.28;1.55;;;8.80;54.00;;;;;;4944963;28;20051;-67
2022/04/03 11:31:33;;;;;;;2.67;1.80;;;8.80;53.80;;;;;;4946012;28;20078;-67
2022/04/03 11:34:01;;;;;;;4.03;1.42;;;8.80;53.10;;;;;;4948920;29;20039;-67
2022/04/03 11:36:33;;;;;;;5.13;1.77;;;8.80;52.70;;;;;;4936926;29;20066;-67
2022/04/03 11:39:04;;;;;;;6.03;2.08;;;8.80;53.70;;;;;;4953566;29;20568;-67
2022/04/03 11:41:35;;;;;;;7.22;2.33;;;8.60;54.60;;;;;;4949876;29;20046;-67
2022/04/03 11:44:13;;;;;;;5.18;2.05;;;8.50;55.60;;;;;;4936460;29;20039;-67
2022/04/03 11:46:43;;;;;;;4.85;2.70;;;8.40;56.40;;;;;;4944758;29;20042;-67
2022/04/03 11:49:12;;;;;;;4.80;2.08;;;8.30;57.00;;;;;;4944655;29;20537;-67
2022/04/03 11:51:40;;;;;;;2.90;2.25;;;8.30;57.00;;;;;;4942434;29;20046;-69
2022/04/03 11:54:09;;;;;;;3.05;1.92;;;8.30;57.50;;;;;;4946067;29;20484;-70
2022/04/03 11:56:38;;;;;;;3.13;2.03;;;8.30;57.70;;;;;;4953644;29;20051;-68
2022/04/03 11:59:13;;;;;;;3.55;2.05;;;8.30;57.90;;;;;;4946529;28;20404;-68
2022/04/03 12:01:49;;;;;;;4.55;1.95;;;8.40;57.70;;;;;;4941430;29;20043;-67
2022/04/03 12:04:19;;;;;;;3.45;1.88;;;8.40;56.70;;;;;;4944834;28;20497;-67
2022/04/03 12:06:58;;;;;;;3.05;1.92;;;8.50;56.00;;;;;;4941527;28;20039;-73
2022/04/03 12:09:27;;;;;;;3.70;2.15;;;8.60;55.00;;;;;;4946687;29;20058;-67
2022/04/03 12:11:56;;;;;;;5.90;1.85;;;8.80;55.20;;;;;;4944759;29;20051;-67
2022/04/03 12:14:31;;;;;;;2.85;1.90;;;9.00;54.70;;;;;;4944800;29;20047;-67
2022/04/03 12:17:06;;;;;;;2.42;1.70;;;9.30;53.90;;;;;;4939371;29;20044;-70
2022/04/03 12:19:42;;;;;;;3.13;2.00;;;9.40;52.90;;;;;;4933132;29;20512;-68
2022/04/03 12:22:18;;;;;;;2.83;1.30;;;9.70;52.50;;;;;;4938653;29;20051;-68
2022/04/03 12:24:50;;;;;;;2.70;1.20;;;10.10;52.20;;;;;;4943700;29;20066;-67
2022/04/03 12:27:25;;;;;;;2.40;1.17;;;10.40;50.60;;;;;;4938496;29;20047;-67
2022/04/03 12:29:55;;;;;;;4.32;1.77;;;10.50;47.40;;;;;;4944101;29;20066;-67
2022/04/03 12:32:25;;;;;;;3.10;1.63;;;10.70;47.80;;;;;;4943160;29;20054;-67
2022/04/03 12:34:53;;;;;;;4.63;1.60;;;11.40;47.80;;;;;;4941640;29;20051;-68
2022/04/03 12:37:21;;;;;;;1.77;1.55;;;12.10;47.10;;;;;;4942057;29;20047;-68
2022/04/03 12:39:52;;;;;;;2.25;1.50;;;12.90;45.90;;;;;;4938971;29;20413;-71
2022/04/03 12:42:21;;;;;;;1.88;1.40;;;13.60;44.00;;;;;;4959242;28;20055;-69
2022/04/03 12:44:49;;;;;;;2.88;1.45;;;14.10;42.00;;;;;;4946849;29;20043;-68
2022/04/03 12:47:28;;;;;;;3.90;1.42;;;14.00;41.60;;;;;;4939199;29;20048;-69
2022/04/03 12:50:05;;;;;;;2.40;1.40;;;14.20;42.10;;;;;;4938482;29;20040;-69
2022/04/03 12:52:48;;;;;;;3.63;1.45;;;14.60;39.80;;;;;;4939532;29;20043;-69